Time;durP1;ratioP1;P1;durP2;ratioP2;P2;SDS_P1;SDS_P2;PMS_P1;PMS_P2;Temp;Humidity;BMP_temperature;BMP_pressure;BME280_temperature;BME280_humidity;BME280_pressure;Samples;Min_cycle;Max_cycle;Signal;HPM_P1;HPM_P2
2022/04/11 00:02:14;;;;;;;4.63;1.98;;;;;;;2.28;70.64;101182.22;5071434;28;20052;-67
2022/04/11 00:05:17;;;;;;;4.28;1.60;;;;;;;2.14;71.37;101181.44;5071736;28;20063;-66
2022/04/11 00:08:21;;;;;;;4.85;2.03;;;;;;;2.17;71.24;101173.69;5071794;28;20410;-66
2022/04/11 00:11:24;;;;;;;4.70;1.98;;;;;;;1.99;71.95;101172.09;5071535;28;20522;-66
2022/04/11 00:14:27;;;;;;;6.80;1.90;;;;;;;2.13;71.67;101166.84;5071448;28;20101;-66
2022/04/11 00:17:31;;;;;;;4.78;1.77;;;;;;;2.19;71.16;101172.81;5059236;28;20052;-66
2022/04/11 00:20:34;;;;;;;8.07;2.30;;;;;;;2.16;70.50;101172.81;5075499;28;20406;-67
2022/04/11 00:23:37;;;;;;;4.55;2.13;;;;;;;2.22;70.22;101174.50;5075198;28;20079;-66
2022/04/11 00:26:40;;;;;;;7.35;2.00;;;;;;;2.33;70.16;101165.84;5074922;28;20051;-67
2022/04/11 00:29:44;;;;;;;;;;;;;;;2.26;70.46;101168.44;5075249;28;20089;-66
2022/04/11 00:32:47;;;;;;;4.55;2.03;;;;;;;2.10;71.34;101168.56;5062612;28;20002;-67
2022/04/11 00:35:51;;;;;;;3.97;1.60;;;;;;;2.31;71.21;101161.53;5075015;28;20453;-66
2022/04/11 00:38:54;;;;;;;3.67;1.83;;;;;;;2.30;70.32;101160.69;5074842;28;20415;-66
2022/04/11 00:42:07;;;;;;;7.00;1.98;;;;;;;2.42;69.94;101159.72;5074728;28;20047;-66
2022/04/11 00:45:10;;;;;;;5.95;1.98;;;;;;;2.19;70.67;101162.47;5062148;28;20100;-66
2022/04/11 00:48:13;;;;;;;4.57;1.85;;;;;;;2.04;71.62;101157.44;5074760;28;20047;-66
2022/04/11 00:51:21;;;;;;;3.25;1.65;;;;;;;2.15;71.30;101155.66;5062379;28;20074;-66
2022/04/11 00:54:27;;;;;;;5.68;1.90;;;;;;;2.32;71.08;101153.78;5074580;28;20038;-66
2022/04/11 00:57:30;;;;;;;6.72;2.30;;;;;;;2.26;71.04;101152.97;5062108;28;20599;-66
2022/04/11 01:00:36;;;;;;;4.53;1.73;;;;;;;2.15;71.43;101160.81;5062025;28;20460;-66
2022/04/11 01:03:39;;;;;;;6.80;2.03;;;;;;;2.20;71.09;101158.19;5074447;28;20091;-66
2022/04/11 01:06:43;;;;;;;5.88;2.10;;;;;;;2.32;70.41;101152.91;5074529;28;20051;-66
2022/04/11 01:09:46;;;;;;;5.65;3.15;;;;;;;2.40;70.31;101146.00;5074119;28;20060;-66
2022/04/11 01:12:50;;;;;;;4.90;2.13;;;;;;;2.21;70.91;101149.59;5061989;28;20094;-66
2022/04/11 01:15:54;;;;;;;;;;;;;;;2.14;71.42;101158.22;5062030;28;20128;-66
2022/04/11 01:18:58;;;;;;;4.65;2.13;;;;;;;2.19;71.09;101153.91;5061701;28;19920;-66
2022/04/11 01:22:01;;;;;;;4.80;2.13;;;;;;;2.20;71.07;101159.06;5074352;28;20119;-66
2022/04/11 01:25:09;;;;;;;3.80;2.20;;;;;;;2.26;70.96;101158.13;5061465;28;20404;-67
2022/04/11 01:28:15;;;;;;;3.40;1.80;;;;;;;2.38;70.35;101155.47;5073649;28;20542;-66
2022/04/11 01:31:18;;;;;;;4.53;2.03;;;;;;;2.14;70.95;101153.06;5073204;28;20120;-66
2022/04/11 01:34:21;;;;;;;5.60;1.88;;;;;;;1.92;71.82;101148.06;5061480;28;20051;-66
2022/04/11 01:37:25;;;;;;;4.38;2.28;;;;;;;2.06;71.65;101146.25;5073797;28;20052;-67
2022/04/11 01:40:29;;;;;;;5.93;2.10;;;;;;;2.27;70.78;101145.22;5061304;28;20391;-66
2022/04/11 01:43:32;;;;;;;5.90;2.40;;;;;;;2.32;70.73;101143.44;5073645;28;20051;-67
2022/04/11 01:46:36;;;;;;;5.95;2.03;;;;;;;2.01;71.56;101132.53;5061177;28;20051;-66
2022/04/11 01:49:52;;;;;;;5.50;2.50;;;;;;;1.92;71.91;101140.34;5061050;28;20175;-67
2022/04/11 01:53:09;;;;;;;4.43;1.92;;;;;;;1.89;72.21;101140.34;5073350;28;20106;-66
2022/04/11 01:56:13;;;;;;;5.22;2.45;;;;;;;1.91;71.81;101136.03;5061022;28;20106;-67
2022/04/11 01:59:17;;;;;;;5.03;2.17;;;;;;;2.03;71.69;101133.38;5060649;28;20035;-66
2022/04/11 02:02:21;;;;;;;4.28;1.98;;;;;;;2.04;71.55;101132.53;5049616;28;20557;-66
2022/04/11 02:05:25;;;;;;;4.82;2.08;;;;;;;2.01;71.81;101126.50;5060764;28;20181;-66
2022/04/11 02:08:28;;;;;;;5.80;2.75;;;;;;;1.79;72.42;101128.41;5073031;28;20043;-66
2022/04/11 02:11:46;;;;;;;4.80;2.40;;;;;;;1.77;72.82;101132.69;5053067;28;20040;-66
2022/04/11 02:14:50;;;;;;;5.72;2.25;;;;;;;1.82;72.72;101125.81;5053164;28;20457;-66
2022/04/11 02:17:53;;;;;;;5.03;2.33;;;;;;;1.70;72.96;101119.00;5053030;28;20131;-66
2022/04/11 02:20:56;;;;;;;;;;;;;;;1.73;73.27;101120.69;5052700;28;20573;-66
2022/04/11 02:24:00;;;;;;;6.38;2.40;;;;;;;1.95;72.36;101117.09;5052341;28;19919;-66
2022/04/11 02:27:04;;;;;;;7.75;2.70;;;;;;;1.88;72.86;101112.84;5051916;28;20117;-66
2022/04/11 02:30:07;;;;;;;6.10;2.70;;;;;;;1.73;73.37;101118.13;5051812;28;20454;-66
2022/04/11 02:33:11;;;;;;;6.80;3.10;;;;;;;1.73;73.64;101113.81;5052637;28;20048;-66
2022/04/11 02:36:14;;;;;;;5.55;2.70;;;;;;;2.06;72.42;101110.13;5051644;28;20043;-66
2022/04/11 02:39:17;;;;;;;5.97;2.55;;;;;;;2.14;72.26;101106.63;5051469;28;20040;-66
2022/04/11 02:42:25;;;;;;;3.60;2.20;;;;;;;1.90;72.88;101111.13;5050819;28;20341;-66
2022/04/11 02:45:32;;;;;;;5.30;2.65;;;;;;;1.84;72.99;101106.84;5051550;28;20114;-66
2022/04/11 02:48:37;;;;;;;7.13;2.42;;;;;;;1.78;73.34;101103.47;5051579;28;20562;-66
2022/04/11 02:51:58;;;;;;;6.80;2.20;;;;;;;1.83;72.94;101101.72;5051338;28;20060;-66
2022/04/11 02:55:01;;;;;;;7.97;3.38;;;;;;;2.08;71.97;101103.25;5051252;28;20403;-66
2022/04/11 02:58:05;;;;;;;5.30;2.20;;;;;;;1.88;72.79;101109.41;5051161;28;20048;-66
2022/04/11 03:01:09;;;;;;;4.22;2.40;;;;;;;1.79;73.06;101102.63;5051327;28;20043;-67
2022/04/11 03:04:13;;;;;;;7.25;2.35;;;;;;;1.75;73.25;101109.50;5051246;28;20606;-66
2022/04/11 03:07:33;;;;;;;4.70;2.08;;;;;;;1.75;73.32;101108.63;5051196;28;20060;-66
2022/04/11 03:10:36;;;;;;;6.32;2.88;;;;;;;1.61;73.54;101109.59;5050954;28;20106;-66
2022/04/11 03:13:42;;;;;;;7.78;2.30;;;;;;;1.90;73.04;101105.97;5050500;28;20044;-66
2022/04/11 03:16:45;;;;;;;4.78;2.00;;;;;;;1.84;73.15;101104.28;5058467;28;20074;-66
2022/04/11 03:19:49;;;;;;;;;;;;;;;2.09;72.47;101104.94;5059230;28;20055;-66
2022/04/11 03:22:53;;;;;;;5.07;2.50;;;;;;;2.19;72.25;101097.13;5059252;28;19919;-66
2022/04/11 03:25:57;;;;;;;5.15;2.35;;;;;;;2.16;71.94;101102.31;5007089;28;20049;-66
2022/04/11 03:29:04;;;;;;;6.65;2.35;;;;;;;2.02;72.19;101090.41;5030909;28;20044;-66
2022/04/11 03:32:08;;;;;;;8.65;2.53;;;;;;;2.00;72.49;101097.28;5029062;28;20045;-66
2022/04/11 03:35:14;;;;;;;4.82;2.45;;;;;;;2.10;72.28;101091.16;5011133;28;20459;-66
2022/04/11 03:38:18;;;;;;;5.63;2.95;;;;;;;1.89;73.06;101081.03;5011099;28;20048;-66
2022/04/11 03:41:25;;;;;;;4.10;2.30;;;;;;;1.78;73.29;101082.84;5011805;28;20073;-66
2022/04/11 03:44:35;;;;;;;6.00;2.38;;;;;;;1.69;74.00;101086.34;5022881;28;20052;-66
2022/04/11 03:47:45;;;;;;;5.50;2.50;;;;;;;1.65;74.17;101087.22;5012043;28;20496;-66
2022/04/11 03:50:52;;;;;;;6.10;1.88;;;;;;;1.85;72.95;101084.50;5011225;28;20056;-66
2022/04/11 03:53:57;;;;;;;4.20;2.67;;;;;;;1.70;73.59;101074.31;5001555;28;20041;-66
2022/04/11 03:57:02;;;;;;;7.63;2.80;;;;;;;1.61;73.75;101080.38;5015087;28;20528;-66
2022/04/11 04:00:06;;;;;;;4.57;2.00;;;;;;;1.56;74.21;101085.56;5026411;28;20088;-66
2022/04/11 04:03:22;;;;;;;5.65;2.40;;;;;;;1.63;73.99;101082.09;5015694;28;20056;-66
2022/04/11 04:06:32;;;;;;;5.53;2.03;;;;;;;1.62;73.81;101077.78;5014776;28;20072;-66
2022/04/11 04:09:37;;;;;;;5.97;2.63;;;;;;;1.68;73.84;101086.34;5014718;28;20077;-66
2022/04/11 04:12:41;;;;;;;10.38;2.45;;;;;;;1.80;73.37;101078.53;5014731;28;20053;-66
2022/04/11 04:15:53;;;;;;;3.85;2.10;;;;;;;1.69;73.81;101075.16;5026375;28;20096;-66
2022/04/11 04:18:58;;;;;;;4.05;1.98;;;;;;;1.74;73.37;101070.84;5014427;28;20556;-66
2022/04/11 04:22:02;;;;;;;6.28;2.60;;;;;;;1.88;72.85;101071.56;5025898;28;20045;-66
2022/04/11 04:25:07;;;;;;;5.07;2.65;;;;;;;1.90;72.32;101080.16;5014289;28;20501;-66
2022/04/11 04:28:10;;;;;;;5.00;2.10;;;;;;;1.84;72.38;101075.91;4992190;28;20108;-67
2022/04/11 04:31:15;;;;;;;6.50;2.92;;;;;;;1.81;72.42;101075.94;4994952;28;20464;-66
2022/04/11 04:34:18;;;;;;;4.30;2.13;;;;;;;1.89;71.93;101073.31;4994733;28;20053;-66
2022/04/11 04:37:21;;;;;;;6.22;1.98;;;;;;;1.86;72.19;101083.66;5001393;28;20568;-66
2022/04/11 04:40:27;;;;;;;6.05;2.10;;;;;;;1.78;72.70;101090.56;4989439;28;20096;-66
2022/04/11 04:43:31;;;;;;;5.13;1.83;;;;;;;1.71;72.60;101084.59;4989573;28;20041;-66
2022/04/11 04:46:36;;;;;;;5.95;2.17;;;;;;;1.63;72.70;101079.50;4989735;28;20553;-66
2022/04/11 04:50:09;;;;;;;4.05;2.22;;;;;;;1.67;72.66;101088.06;4990526;28;20810;-66
2022/04/11 04:53:13;;;;;;;5.15;2.67;;;;;;;1.59;73.05;101092.41;4990381;28;20049;-66
2022/04/11 04:56:16;;;;;;;7.25;2.30;;;;;;;1.64;72.89;101090.69;4990329;28;20045;-66
2022/04/11 04:59:21;;;;;;;4.90;2.80;;;;;;;1.66;72.57;101093.22;4990674;28;20049;-67
2022/04/11 05:02:25;;;;;;;5.03;2.40;;;;;;;1.69;72.44;101090.63;4988763;28;20184;-66
2022/04/11 05:05:30;;;;;;;7.35;2.65;;;;;;;1.60;73.03;101094.16;4980211;28;20045;-66
2022/04/11 05:08:35;;;;;;;7.28;3.13;;;;;;;1.51;73.08;101089.03;4994865;28;20129;-66
2022/04/11 05:11:39;;;;;;;6.30;3.63;;;;;;;1.57;72.72;101089.84;5017965;28;20192;-66
2022/04/11 05:14:42;;;;;;;4.43;2.72;;;;;;;1.57;72.71;101089.84;5030982;28;20308;-67
2022/04/11 05:17:49;;;;;;;5.18;2.78;;;;;;;1.57;72.67;101100.16;5021265;28;20329;-66
2022/04/11 05:20:54;;;;;;;7.05;3.50;;;;;;;1.58;72.58;101093.28;5034139;28;20106;-66
2022/04/11 05:24:00;;;;;;;10.98;3.40;;;;;;;1.49;73.01;101099.34;5036678;28;20179;-66
2022/04/11 05:27:04;;;;;;;4.25;2.50;;;;;;;1.28;74.11;101102.06;5027886;28;20048;-67
2022/04/11 05:30:08;;;;;;;7.00;2.80;;;;;;;1.42;74.00;101096.81;5027763;28;20515;-66
2022/04/11 05:33:15;;;;;;;4.72;2.75;;;;;;;1.52;73.69;101101.06;5017452;28;20141;-66
2022/04/11 05:36:20;;;;;;;7.20;4.22;;;;;;;1.57;72.96;101099.31;5029822;28;20052;-66
2022/04/11 05:39:25;;;;;;;5.78;3.33;;;;;;;1.49;73.46;101101.91;5017925;28;20052;-66
2022/04/11 05:42:29;;;;;;;3.50;2.10;;;;;;;1.36;73.99;101093.41;5021937;28;20449;-66
2022/04/11 05:45:33;;;;;;;7.43;3.22;;;;;;;1.43;73.83;101099.38;5028768;28;20192;-66
2022/04/11 05:48:37;;;;;;;9.45;2.53;;;;;;;1.55;73.97;101098.47;5016231;28;20133;-66
2022/04/11 05:51:42;;;;;;;6.68;2.22;;;;;;;1.63;73.48;101102.72;5016611;28;20047;-66
2022/04/11 05:54:45;;;;;;;5.22;3.03;;;;;;;1.44;74.06;101103.69;5028914;28;20052;-66
2022/04/11 05:57:50;;;;;;;7.90;2.92;;;;;;;1.38;75.07;101109.72;5017346;28;20308;-66
2022/04/11 06:00:53;;;;;;;7.30;3.20;;;;;;;1.61;74.61;101104.44;5016060;28;20195;-66
2022/04/11 06:03:57;;;;;;;5.22;2.35;;;;;;;1.77;74.03;101102.63;5022944;28;20103;-66
2022/04/11 06:07:00;;;;;;;;;;;;;;;1.72;74.14;101094.03;5033175;28;20056;-66
2022/04/11 06:10:05;;;;;;;5.43;2.38;;;;;;;1.73;74.17;101100.94;5043684;28;19987;-66
2022/04/11 06:13:09;;;;;;;5.45;2.22;;;;;;;1.62;75.05;101098.41;5032566;28;20099;-66
2022/04/11 06:16:12;;;;;;;;;;;;;;;1.71;74.33;101094.06;5033407;28;20049;-66
2022/04/11 06:19:17;;;;;;;5.20;1.98;;;;;;;1.62;74.55;101090.66;5034977;28;19919;-66
2022/04/11 06:22:22;;;;;;;6.13;2.80;;;;;;;1.84;74.20;101098.25;5048271;28;20515;-66
2022/04/11 06:25:27;;;;;;;12.40;3.45;;;;;;;1.86;74.53;101094.81;5040428;28;20055;-66
2022/04/11 06:28:30;;;;;;;4.68;2.55;;;;;;;2.00;74.03;101092.13;5052740;28;20099;-66
2022/04/11 06:31:33;;;;;;;5.20;2.60;;;;;;;2.05;73.62;101092.09;5040126;28;20091;-66
2022/04/11 06:34:43;;;;;;;4.85;2.28;;;;;;;2.12;73.99;101092.91;5039974;28;20492;-66
2022/04/11 06:37:47;;;;;;;6.35;2.85;;;;;;;2.08;74.13;101087.78;5052573;28;20043;-66
2022/04/11 06:40:51;;;;;;;5.90;2.72;;;;;;;2.22;74.39;101086.78;5040195;28;20090;-66
2022/04/11 06:43:54;;;;;;;4.88;2.75;;;;;;;2.44;73.74;101085.72;5040042;28;20570;-66
2022/04/11 06:47:12;;;;;;;3.83;2.33;;;;;;;2.52;73.20;101068.44;5040246;28;20068;-66
2022/04/11 06:50:16;;;;;;;4.65;2.80;;;;;;;2.59;73.13;101069.22;5040081;28;20101;-66
2022/04/11 06:53:20;;;;;;;4.97;2.80;;;;;;;2.67;73.04;101066.53;5052003;28;20142;-66
2022/04/11 06:56:23;;;;;;;5.82;2.92;;;;;;;2.72;73.01;101064.78;5052006;28;20098;-66
2022/04/11 06:59:28;;;;;;;5.63;3.05;;;;;;;2.88;72.49;101070.63;5052603;28;20044;-66
2022/04/11 07:02:32;;;;;;;8.27;2.97;;;;;;;3.08;71.77;101076.38;5035689;28;20057;-66
2022/04/11 07:05:39;;;;;;;7.28;2.80;;;;;;;3.21;71.55;101067.59;5032373;28;20064;-66
2022/04/11 07:08:42;;;;;;;6.75;3.28;;;;;;;3.32;71.29;101062.31;5032303;28;20048;-66
2022/04/11 07:11:46;;;;;;;11.95;3.67;;;;;;;3.22;70.90;101060.69;5031877;28;20064;-66
2022/04/11 07:14:49;;;;;;;6.43;3.38;;;;;;;3.38;70.99;101054.47;5032090;28;20512;-66
2022/04/11 07:17:53;;;;;;;8.35;3.60;;;;;;;3.43;70.91;101055.25;5031734;28;20092;-66
2022/04/11 07:20:56;;;;;;;8.57;4.13;;;;;;;3.53;70.93;101043.03;5036763;28;20124;-66
2022/04/11 07:23:59;;;;;;;8.77;3.90;;;;;;;3.68;70.49;101036.78;5046509;28;20052;-66
2022/04/11 07:27:03;;;;;;;8.02;4.30;;;;;;;3.63;70.40;101036.84;5051856;28;20044;-66
2022/04/11 07:30:07;;;;;;;8.30;4.28;;;;;;;3.83;69.63;101033.97;5055233;28;20067;-66
2022/04/11 07:33:10;;;;;;;8.60;4.55;;;;;;;3.64;70.58;101028.22;5055663;28;20198;-67
2022/04/11 07:36:14;;;;;;;9.70;4.05;;;;;;;3.92;70.00;101017.41;5056399;28;20064;-67
2022/04/11 07:39:18;;;;;;;7.70;4.30;;;;;;;3.94;70.13;101023.41;5043681;28;20047;-66
2022/04/11 07:42:22;;;;;;;9.48;4.63;;;;;;;4.15;70.22;101027.38;5055789;28;20067;-66
2022/04/11 07:45:25;;;;;;;7.35;4.15;;;;;;;4.32;69.58;101022.75;5055694;28;20474;-66
2022/04/11 07:48:29;;;;;;;7.25;3.60;;;;;;;4.39;68.73;101019.16;5055712;28;20457;-66
2022/04/11 07:51:32;;;;;;;9.43;4.38;;;;;;;4.42;68.45;101013.06;5055807;28;20576;-66
2022/04/11 07:54:36;;;;;;;8.32;4.63;;;;;;;4.60;68.80;101007.53;5055492;28;20442;-66
2022/04/11 07:57:39;;;;;;;;;;;;;;;4.75;68.68;101006.34;5056177;28;20545;-66
2022/04/11 08:00:42;;;;;;;10.02;4.90;;;;;;;4.84;68.82;100998.38;5055411;28;19934;-66
2022/04/11 08:03:45;;;;;;;12.60;4.65;;;;;;;5.02;68.18;100999.75;5041662;28;20422;-66
2022/04/11 08:06:49;;;;;;;8.65;4.70;;;;;;;5.00;68.36;100990.28;5038700;28;20044;-67
2022/04/11 08:09:54;;;;;;;9.00;4.85;;;;;;;5.23;68.24;101005.34;5015894;28;20052;-66
2022/04/11 08:12:59;;;;;;;9.20;4.93;;;;;;;5.43;67.75;100999.72;5015856;28;20053;-66
2022/04/11 08:16:02;;;;;;;7.05;4.88;;;;;;;5.50;67.17;100993.47;5015696;28;20136;-67
2022/04/11 08:19:06;;;;;;;10.35;6.03;;;;;;;5.58;67.39;100986.34;5015607;28;20052;-67
2022/04/11 08:22:09;;;;;;;;;;;;;;;5.86;67.65;100998.66;5035297;28;20110;-67
2022/04/11 08:25:14;;;;;;;10.93;5.45;;;;;;;6.05;67.44;100987.78;5048429;28;19978;-67
2022/04/11 08:28:19;;;;;;;7.43;5.60;;;;;;;6.07;66.02;100985.16;5032148;28;20064;-67
2022/04/11 08:31:22;;;;;;;10.30;5.03;;;;;;;6.11;66.01;100981.59;5030007;28;20052;-67
2022/04/11 08:34:25;;;;;;;;;;;;;;;6.36;66.93;100983.53;5019656;28;20076;-67
2022/04/11 08:37:28;;;;;;;8.68;4.28;;;;;;;6.51;65.86;100972.72;5042478;28;19919;-67
2022/04/11 08:40:32;;;;;;;;;;;;;;;6.75;66.17;100971.16;5031884;28;20048;-67
2022/04/11 08:43:36;;;;;;;9.48;5.70;;;;;;;6.86;65.58;100963.03;5031229;28;20280;-67
2022/04/11 08:46:40;;;;;;;14.38;5.03;;;;;;;6.89;65.24;100958.59;5030437;28;20518;-67
2022/04/11 08:49:44;;;;;;;11.90;5.10;;;;;;;7.08;66.01;100958.03;5030857;28;20534;-68
2022/04/11 08:52:51;;;;;;;;;;;;;;;7.64;64.93;100948.41;5031100;28;20612;-68
2022/04/11 08:55:58;;;;;;;8.90;4.65;;;;;;;7.86;64.27;100947.69;5031568;28;19955;-68
2022/04/11 08:59:05;;;;;;;8.07;4.93;;;;;;;8.07;62.41;100936.53;5029920;28;20063;-68
2022/04/11 09:02:12;;;;;;;7.53;3.97;;;;;;;8.31;61.27;100929.59;5034155;28;20048;-67
2022/04/11 09:05:20;;;;;;;9.65;4.40;;;;;;;8.37;61.50;100923.31;5034588;28;20099;-67
2022/04/11 09:08:38;;;;;;;10.43;4.53;;;;;;;8.68;59.72;100925.66;5033318;28;20056;-67
2022/04/11 09:11:50;;;;;;;25.80;11.43;;;;;;;8.82;56.86;100927.72;5034696;28;20499;-67
2022/04/11 09:14:55;;;;;;;11.45;4.68;;;;;;;8.81;56.41;100916.47;5034230;28;20524;-67
2022/04/11 09:18:00;;;;;;;7.93;4.43;;;;;;;8.95;57.76;100918.50;5034484;28;20056;-67
2022/04/11 09:21:03;;;;;;;6.68;4.07;;;;;;;9.12;56.01;100917.00;5029908;28;20052;-68
2022/04/11 09:24:22;;;;;;;6.63;2.05;;;;;;;9.31;49.30;100912.72;5037065;28;20036;-67
2022/04/11 09:27:26;;;;;;;4.18;1.70;;;;;;;9.59;45.37;100901.16;5030836;28;20056;-68
2022/04/11 09:30:31;;;;;;;7.47;2.50;;;;;;;9.83;43.61;100912.31;5029204;28;20052;-68
2022/04/11 09:33:39;;;;;;;4.93;1.63;;;;;;;9.90;41.06;100898.09;5033873;28;20040;-67
2022/04/11 09:36:53;;;;;;;7.05;2.22;;;;;;;9.82;40.18;100898.41;5033778;28;20099;-67
2022/04/11 09:39:57;;;;;;;5.95;3.10;;;;;;;9.93;41.53;100896.19;5014441;28;20040;-68
2022/04/11 09:43:00;;;;;;;;;;;;;;;9.80;38.84;100895.03;5027844;28;20083;-67
2022/04/11 09:46:04;;;;;;;7.05;1.90;;;;;;;9.65;38.38;100890.47;5028865;28;20398;-72
2022/04/11 09:49:09;;;;;;;7.38;4.70;;;;;;;9.91;42.40;100887.56;5028914;28;20441;-68
2022/04/11 09:52:14;;;;;;;6.70;2.70;;;;;;;10.46;40.57;100897.34;5031607;28;20052;-67
2022/04/11 09:55:17;;;;;;;5.07;2.03;;;;;;;10.40;38.78;100874.09;5032132;28;20049;-67
2022/04/11 09:58:22;;;;;;;;;;;;;;;10.38;38.47;100887.25;5033443;28;20076;-68
2022/04/11 10:01:47;;;;;;;;;;;;;;;;;;;;;
2022/04/11 10:05:14;;;;;;;5.35;1.30;;;;;;;10.43;38.97;100874.81;5003803;28;20527;-69
2022/04/11 10:08:18;;;;;;;4.70;1.25;;;;;;;10.59;40.54;100879.31;5012918;28;20045;-69
2022/04/11 10:11:22;;;;;;;5.60;1.90;;;;;;;10.53;37.64;100869.13;5012246;28;20520;-69
2022/04/11 10:14:28;;;;;;;4.38;1.38;;;;;;;10.57;39.65;100875.94;5001427;28;20084;-69
2022/04/11 10:17:32;;;;;;;2.92;1.13;;;;;;;10.63;37.42;100870.44;5025196;28;20040;-69
2022/04/11 10:20:39;;;;;;;2.72;1.17;;;;;;;10.44;37.76;100871.28;5029627;28;20037;-69
2022/04/11 10:23:59;;;;;;;2.85;1.00;;;;;;;10.58;39.08;100861.94;5029321;28;20049;-69
2022/04/11 10:27:18;;;;;;;3.53;1.00;;;;;;;10.74;38.36;100857.69;5031561;28;20047;-69
2022/04/11 10:30:27;;;;;;;5.82;1.45;;;;;;;10.77;37.05;100851.47;5028765;28;20429;-69
2022/04/11 10:33:44;;;;;;;5.03;1.92;;;;;;;10.79;36.09;100853.09;5027855;28;20447;-69
2022/04/11 10:36:56;;;;;;;4.43;1.60;;;;;;;10.63;36.19;100846.91;5031169;28;20106;-69
2022/04/11 10:40:19;;;;;;;3.28;1.23;;;;;;;11.12;37.65;100836.66;5029321;28;20048;-69
2022/04/11 10:43:23;;;;;;;4.55;1.52;;;;;;;10.89;35.84;100825.56;5028967;28;20040;-69
2022/04/11 10:46:26;;;;;;;2.65;1.10;;;;;;;10.98;36.56;100823.44;5029423;28;20292;-69
2022/04/11 10:49:30;;;;;;;6.18;2.28;;;;;;;11.11;37.25;100808.81;5027651;28;20536;-68
2022/04/11 10:52:36;;;;;;;5.53;1.63;;;;;;;11.12;36.64;100815.72;5031852;28;20052;-68
2022/04/11 10:56:02;;;;;;;5.90;2.05;;;;;;;10.92;34.44;100816.72;5012821;28;20127;-69
2022/04/11 10:59:06;;;;;;;4.38;1.48;;;;;;;10.81;35.78;100811.16;5012851;28;20041;-69
2022/04/11 11:02:11;;;;;;;3.78;1.60;;;;;;;10.82;35.74;100810.25;5013265;28;20045;-69
2022/04/11 11:05:35;;;;;;;6.00;1.88;;;;;;;11.01;35.85;100800.56;5031959;28;20044;-69
2022/04/11 11:08:39;;;;;;;4.28;1.80;;;;;;;10.96;36.17;100799.09;5031266;28;20076;-70
2022/04/11 11:11:43;;;;;;;7.05;1.65;;;;;;;11.04;35.81;100796.94;5032131;28;20040;-69
2022/04/11 11:14:46;;;;;;;4.65;1.50;;;;;;;11.17;35.42;100796.25;5031961;28;20235;-69
2022/04/11 11:17:57;;;;;;;4.15;1.55;;;;;;;11.11;35.98;100780.84;5032124;28;20048;-69
2022/04/11 11:21:01;;;;;;;5.60;1.90;;;;;;;11.35;36.55;100794.47;5027802;28;20594;-69
2022/04/11 11:24:04;;;;;;;3.95;1.33;;;;;;;11.49;35.24;100780.69;5017342;28;20048;-69
2022/04/11 11:27:10;;;;;;;4.18;1.50;;;;;;;11.84;36.86;100776.22;5041089;28;20427;-69
2022/04/11 11:30:15;;;;;;;5.32;2.10;;;;;;;11.88;35.42;100778.69;5036008;28;20436;-69
2022/04/11 11:33:19;;;;;;;6.45;1.92;;;;;;;11.84;34.92;100773.59;5026179;28;20068;-67
2022/04/11 11:36:30;;;;;;;4.38;1.73;;;;;;;11.97;35.28;100762.47;5025723;28;20091;-67
2022/04/11 11:39:37;;;;;;;6.43;1.73;;;;;;;12.15;35.93;100765.84;5026374;28;20048;-67
2022/04/11 11:42:40;;;;;;;6.47;2.10;;;;;;;12.13;34.24;100763.31;5027738;28;20052;-67
2022/04/11 11:45:45;;;;;;;9.73;5.65;;;;;;;11.82;34.66;100743.97;5027588;28;20043;-67
2022/04/11 11:48:48;;;;;;;14.63;6.43;;;;;;;11.93;35.32;100747.81;5027239;28;20045;-68
2022/04/11 11:51:53;;;;;;;7.57;2.75;;;;;;;12.18;35.80;100739.47;5025466;28;20546;-67
2022/04/11 11:54:56;;;;;;;6.93;2.58;;;;;;;11.99;34.56;100729.16;5026843;28;20048;-67
2022/04/11 11:58:06;;;;;;;4.80;1.90;;;;;;;12.54;35.87;100733.94;5027481;28;20087;-67
2022/04/11 12:01:11;;;;;;;5.07;2.10;;;;;;;12.54;33.80;100723.47;5027566;28;20121;-67
2022/04/11 12:04:20;;;;;;;7.30;3.00;;;;;;;12.41;33.68;100715.44;5027344;28;20064;-67
2022/04/11 12:07:24;;;;;;;7.22;2.40;;;;;;;12.43;33.69;100729.28;5026823;28;20075;-67
2022/04/11 12:10:28;;;;;;;4.70;1.77;;;;;;;12.40;33.07;100718.13;5027477;28;20138;-67
2022/04/11 12:13:33;;;;;;;7.57;1.70;;;;;;;12.53;34.33;100713.88;5030372;28;20523;-67
2022/04/11 12:16:38;;;;;;;5.55;2.03;;;;;;;12.63;33.35;100708.94;5034578;28;20056;-67
2022/04/11 12:19:42;;;;;;;3.92;1.45;;;;;;;13.10;34.80;100715.81;5034973;28;20103;-67
2022/04/11 12:23:02;;;;;;;4.40;2.00;;;;;;;12.95;33.45;100707.91;5034791;28;20088;-67
2022/04/11 12:26:06;;;;;;;6.95;1.60;;;;;;;13.12;32.50;100701.66;5036449;28;20106;-67
2022/04/11 12:29:10;;;;;;;;;;;;;;;13.27;32.98;100699.91;5038207;28;20056;-67
2022/04/11 12:32:14;;;;;;;5.03;2.00;;;;;;;13.75;32.75;100691.72;5034920;28;19924;-67
2022/04/11 12:35:19;;;;;;;4.38;1.88;;;;;;;14.05;33.24;100684.53;5034626;28;20076;-68
2022/04/11 12:38:54;;;;;;;5.55;1.90;;;;;;;14.17;31.50;100686.38;5035347;28;20056;-67
2022/04/11 12:41:58;;;;;;;4.25;1.80;;;;;;;14.28;30.89;100679.56;5035297;28;20112;-67
2022/04/11 12:45:03;;;;;;;5.70;1.55;;;;;;;14.73;30.61;100672.22;5034761;28;20162;-67
2022/04/11 12:48:09;;;;;;;4.85;1.90;;;;;;;14.63;31.27;100675.47;5034632;28;20048;-67
2022/04/11 12:51:13;;;;;;;4.22;1.63;;;;;;;15.27;31.38;100661.50;5033876;28;20064;-67
2022/04/11 12:54:16;;;;;;;4.13;1.75;;;;;;;15.52;31.18;100656.19;5034551;28;20090;-67
2022/04/11 12:57:22;;;;;;;3.30;1.60;;;;;;;15.82;30.89;100654.97;5034702;28;20080;-67
2022/04/11 13:00:25;;;;;;;4.20;1.88;;;;;;;16.06;29.71;100654.16;5034619;28;20508;-67
2022/04/11 13:03:30;;;;;;;8.75;2.22;;;;;;;16.59;29.83;100659.88;5034609;28;20052;-67
2022/04/11 13:06:33;;;;;;;5.65;1.92;;;;;;;16.83;28.30;100646.66;5033998;28;20053;-67
2022/04/11 13:09:38;;;;;;;5.68;2.35;;;;;;;16.03;27.38;100645.50;5034189;28;20135;-67
2022/04/11 13:12:42;;;;;;;3.60;1.90;;;;;;;16.32;28.12;100642.53;5034016;28;20044;-68
2022/04/11 13:19:20;;;;;;;5.60;1.20;;;;;;;16.89;27.88;100631.19;5027532;28;20083;-68
2022/04/11 13:22:25;;;;;;;2.95;1.48;;;;;;;17.03;26.43;100621.34;5044755;28;20064;-68
2022/04/11 13:25:28;;;;;;;3.97;1.27;;;;;;;17.89;26.32;100623.31;5033211;28;20063;-68
2022/04/11 13:28:32;;;;;;;3.60;1.40;;;;;;;18.80;26.76;100617.50;5041335;28;20495;-68
2022/04/11 13:31:35;;;;;;;5.70;1.63;;;;;;;19.22;24.45;100611.28;5014001;28;20408;-68
2022/04/11 13:34:39;;;;;;;8.43;1.83;;;;;;;19.82;24.09;100609.50;5013785;28;20516;-68
2022/04/11 13:37:42;;;;;;;4.28;1.30;;;;;;;21.02;21.88;100596.63;5014351;28;20045;-68
2022/04/11 13:40:46;;;;;;;5.45;2.25;;;;;;;22.30;20.03;100587.72;5014097;28;20048;-66
2022/04/11 13:43:50;;;;;;;4.28;1.75;;;;;;;24.14;18.02;100568.47;5013598;28;20048;-66
2022/04/11 13:46:54;;;;;;;3.33;1.60;;;;;;;25.51;17.00;100572.81;5014071;28;20509;-66
2022/04/11 13:49:57;;;;;;;4.15;2.22;;;;;;;26.94;15.61;100556.03;5013313;28;20103;-66
2022/04/11 13:53:00;;;;;;;4.40;2.00;;;;;;;25.44;15.73;100550.44;5013762;28;20061;-66
2022/04/11 13:56:06;;;;;;;4.93;2.00;;;;;;;27.67;14.48;100546.19;5013756;28;20095;-67
2022/04/11 13:59:11;;;;;;;3.53;2.13;;;;;;;27.99;14.20;100537.63;5013576;28;20460;-67
2022/04/11 14:02:14;;;;;;;4.10;1.88;;;;;;;27.52;14.42;100536.31;5012713;28;20040;-67
2022/04/11 14:05:17;;;;;;;3.90;1.85;;;;;;;27.09;14.35;100538.91;5031148;28;20048;-67
2022/04/11 14:08:22;;;;;;;5.45;2.63;;;;;;;26.06;15.88;100541.47;5032097;28;20057;-67
2022/04/11 14:11:25;;;;;;;6.55;2.25;;;;;;;28.94;13.51;100525.44;5032214;28;20124;-67
2022/04/11 14:14:28;;;;;;;6.53;2.38;;;;;;;30.52;12.23;100516.97;5042878;28;20052;-67
2022/04/11 14:17:32;;;;;;;4.28;2.60;;;;;;;31.10;11.94;100506.19;5033002;28;20117;-67
2022/04/11 14:20:38;;;;;;;6.38;4.03;;;;;;;29.38;12.69;100513.38;5032800;28;20523;-67
2022/04/11 14:23:41;;;;;;;6.40;3.25;;;;;;;31.89;11.86;100501.38;5043510;28;20082;-67
2022/04/11 14:26:46;;;;;;;5.20;2.03;;;;;;;32.02;11.00;100500.41;5032260;28;20051;-67
2022/04/11 14:29:49;;;;;;;6.53;2.40;;;;;;;31.33;11.46;100502.13;5033732;28;20627;-67
2022/04/11 14:32:52;;;;;;;4.47;2.20;;;;;;;28.15;13.01;100506.94;5012563;28;20088;-67
2022/04/11 14:35:56;;;;;;;6.20;2.63;;;;;;;27.93;13.73;100505.31;5011252;28;20158;-67
2022/04/11 14:38:59;;;;;;;5.35;2.85;;;;;;;28.96;13.52;100498.31;5011607;28;20096;-67